createdAt,value
2018-04-27T08:34:45.906Z,12.47
2018-04-27T08:37:13.549Z,12.50
2018-04-27T08:39:41.206Z,12.63
2018-04-27T08:42:08.909Z,12.66
2018-04-27T08:44:36.591Z,12.79
2018-04-27T08:47:04.244Z,12.86
2018-04-27T08:49:31.929Z,12.95
2018-04-27T08:51:59.537Z,13.13
2018-04-27T08:54:27.145Z,13.18
2018-04-27T08:56:54.776Z,13.28
2018-04-27T08:59:22.383Z,13.38
2018-04-27T09:01:50.021Z,13.56
2018-04-27T09:04:17.617Z,13.71
2018-04-27T09:06:45.287Z,13.88
2018-04-27T09:09:12.909Z,13.87
2018-04-27T09:11:40.557Z,13.88
2018-04-27T09:14:08.209Z,14.03
2018-04-27T09:16:35.891Z,14.05
2018-04-27T09:19:03.627Z,14.16
2018-04-27T09:21:31.479Z,14.23
2018-04-27T09:23:59.008Z,14.21
2018-04-27T09:26:26.714Z,14.19
2018-04-27T09:28:54.326Z,14.21
2018-04-27T09:31:21.909Z,14.25
2018-04-27T09:33:49.545Z,14.38
2018-04-27T09:36:17.362Z,14.50
2018-04-27T09:38:45.124Z,14.66
2018-04-27T09:41:13.215Z,14.93
2018-04-27T09:43:40.993Z,15.02
2018-04-27T09:46:08.693Z,14.97
2018-04-27T09:48:36.401Z,15.19
2018-04-27T09:51:04.165Z,15.16
2018-04-27T09:53:31.882Z,15.27
2018-04-27T09:55:59.655Z,15.30
2018-04-27T09:58:27.553Z,15.37
2018-04-27T10:00:55.277Z,15.30
2018-04-27T10:03:22.914Z,15.30
2018-04-27T10:05:50.778Z,15.32
2018-04-27T10:08:18.498Z,15.48
2018-04-27T10:10:46.173Z,15.70
2018-04-27T10:13:13.809Z,15.69
2018-04-27T10:15:41.458Z,16.02
2018-04-27T10:18:09.114Z,15.99
2018-04-27T10:20:36.749Z,15.96
2018-04-27T10:23:04.356Z,15.89
2018-04-27T10:25:32.015Z,16.01
2018-04-27T10:27:59.698Z,15.96
2018-04-27T10:30:27.365Z,16.16
2018-04-27T10:32:54.991Z,16.19
2018-04-27T10:35:22.606Z,16.13
2018-04-27T10:37:50.378Z,16.18
2018-04-27T10:40:18.039Z,16.24
2018-04-27T10:42:45.660Z,16.05
2018-04-27T10:45:13.285Z,16.22
2018-04-27T10:47:40.938Z,16.30
2018-04-27T10:50:08.646Z,16.29
2018-04-27T10:52:36.411Z,16.56
2018-04-27T10:55:04.003Z,16.43
2018-04-27T10:57:31.732Z,16.51
2018-04-27T10:59:59.451Z,16.91
2018-04-27T11:02:27.125Z,16.82
2018-04-27T11:04:58.210Z,16.89
2018-04-27T11:07:26.480Z,17.11
2018-04-27T11:09:54.554Z,17.16
2018-04-27T11:12:22.523Z,16.74
2018-04-27T11:14:50.595Z,16.69
2018-04-27T11:17:19.754Z,16.88
2018-04-27T11:19:47.966Z,16.59
2018-04-27T11:22:16.546Z,16.70
2018-04-27T11:24:44.518Z,17.12
2018-04-27T11:27:12.253Z,17.11
2018-04-27T11:29:41.350Z,17.50
2018-04-27T11:32:09.318Z,17.54
2018-04-27T11:34:37.049Z,17.56
2018-04-27T11:37:04.632Z,17.41
2018-04-27T11:39:32.269Z,17.33
2018-04-27T11:41:59.885Z,17.27
2018-04-27T11:44:27.751Z,17.46
2018-04-27T11:46:55.372Z,17.31
2018-04-27T11:49:23.090Z,17.40
2018-04-27T11:51:50.716Z,17.10
2018-04-27T11:54:18.354Z,17.37
2018-04-27T11:56:46.048Z,17.27
2018-04-27T11:59:13.711Z,17.19
2018-04-27T12:01:41.390Z,17.19
2018-04-27T12:04:09.149Z,17.38
2018-04-27T12:06:36.764Z,17.27
2018-04-27T12:09:04.378Z,17.76
2018-04-27T12:11:32.038Z,17.97
2018-04-27T12:13:59.715Z,17.90
2018-04-27T12:16:27.590Z,18.10
2018-04-27T12:18:55.217Z,18.59
2018-04-27T12:21:22.857Z,18.78
2018-04-27T12:23:50.513Z,18.81
2018-04-27T12:26:18.259Z,18.49
2018-04-27T12:28:45.879Z,18.56
2018-04-27T12:31:13.647Z,19.08
2018-04-27T12:33:41.297Z,19.03
2018-04-27T12:36:09.054Z,19.57
2018-04-27T12:38:36.649Z,19.92
2018-04-27T12:41:04.341Z,19.94
2018-04-27T12:43:31.955Z,20.37
2018-04-27T12:45:59.535Z,20.30
2018-04-27T12:48:27.190Z,20.28
2018-04-27T12:50:54.873Z,20.09
2018-04-27T12:53:22.591Z,19.79
2018-04-27T12:55:50.209Z,19.54
2018-04-27T12:58:18.715Z,19.32
2018-04-27T13:00:46.391Z,19.67
2018-04-27T13:03:14.114Z,19.77
2018-04-27T13:05:41.818Z,19.50
2018-04-27T13:08:09.440Z,19.56
2018-04-27T13:10:37.051Z,19.90
2018-04-27T13:13:04.722Z,19.96
2018-04-27T13:15:32.316Z,20.04
2018-04-27T13:17:59.977Z,19.78
2018-04-27T13:20:27.682Z,19.84
2018-04-27T13:22:55.370Z,20.15
2018-04-27T13:25:23.076Z,20.14
2018-04-27T13:27:50.707Z,20.43
2018-04-27T13:30:18.405Z,20.43
2018-04-27T13:32:46.085Z,20.28
2018-04-27T13:35:13.810Z,20.49
2018-04-27T13:37:41.419Z,20.52
2018-04-27T13:40:09.075Z,20.19
2018-04-27T13:42:36.672Z,20.70
2018-04-27T13:45:04.313Z,20.88
2018-04-27T13:47:31.924Z,20.70
2018-04-27T13:49:59.552Z,20.75
2018-04-27T13:52:27.166Z,20.78
2018-04-27T13:54:54.819Z,21.02
2018-04-27T13:57:22.526Z,21.15
2018-04-27T13:59:50.131Z,21.10
2018-04-27T14:02:17.790Z,21.19
2018-04-27T14:04:45.427Z,21.44
2018-04-27T14:07:13.137Z,21.66
2018-04-27T14:09:40.759Z,21.78
2018-04-27T14:12:08.364Z,21.40
2018-04-27T14:14:35.991Z,21.22
2018-04-27T14:17:03.654Z,21.22
2018-04-27T14:19:31.376Z,21.53
2018-04-27T14:21:59.061Z,21.84
2018-04-27T14:24:26.676Z,22.44
2018-04-27T14:26:54.414Z,21.63
2018-04-27T14:29:22.105Z,21.10
2018-04-27T14:31:49.793Z,21.49
2018-04-27T14:34:17.444Z,21.24
2018-04-27T14:36:45.156Z,21.43
2018-04-27T14:39:12.799Z,21.51
2018-04-27T14:41:40.459Z,21.92
2018-04-27T14:44:08.113Z,22.13
2018-04-27T14:46:35.736Z,21.88
2018-04-27T14:49:03.528Z,21.59
2018-04-27T14:51:31.094Z,21.80
2018-04-27T14:53:58.746Z,21.54
2018-04-27T14:56:27.260Z,21.24
2018-04-27T14:58:54.895Z,21.54
2018-04-27T15:01:22.486Z,21.75
2018-04-27T15:03:50.164Z,21.98
2018-04-27T15:06:17.798Z,22.25
2018-04-27T15:08:45.501Z,21.94
2018-04-27T15:11:13.126Z,22.16
2018-04-27T15:13:40.733Z,21.61
2018-04-27T15:16:08.363Z,21.15
2018-04-27T15:18:35.969Z,20.71
2018-04-27T15:21:03.622Z,21.07
2018-04-27T15:23:31.218Z,21.81
2018-04-27T15:25:58.868Z,22.01
2018-04-27T15:28:26.496Z,22.17
2018-04-27T15:30:54.113Z,22.31
2018-04-27T15:33:21.731Z,22.23
2018-04-27T15:35:49.457Z,21.92
2018-04-27T15:38:17.077Z,22.30
2018-04-27T15:40:44.749Z,21.92
2018-04-27T15:43:12.420Z,21.83
2018-04-27T15:45:40.058Z,21.87
2018-04-27T15:48:07.745Z,22.22
2018-04-27T15:50:35.361Z,22.33
2018-04-27T15:53:02.985Z,21.73
2018-04-27T15:55:30.787Z,21.37
2018-04-27T15:57:58.442Z,21.75
2018-04-27T16:00:26.054Z,21.76
2018-04-27T16:02:53.716Z,21.43
2018-04-27T16:05:21.337Z,21.04
2018-04-27T16:07:49.061Z,21.25
2018-04-27T16:10:16.680Z,21.14
2018-04-27T16:12:44.304Z,21.39
2018-04-27T16:15:11.946Z,21.60
2018-04-27T16:17:39.593Z,21.49
2018-04-27T16:20:07.205Z,21.74
2018-04-27T16:22:34.801Z,21.62
2018-04-27T16:25:02.452Z,21.45
2018-04-27T16:27:30.073Z,21.16
2018-04-27T16:29:57.692Z,21.38
2018-04-27T16:32:25.372Z,21.55
2018-04-27T16:34:53.026Z,21.40
2018-04-27T16:37:20.622Z,21.63
2018-04-27T16:39:48.270Z,21.65
2018-04-27T16:42:15.890Z,21.61
2018-04-27T16:44:43.532Z,21.86
2018-04-27T16:47:11.148Z,21.82
2018-04-27T16:49:38.801Z,21.57
2018-04-27T16:52:06.411Z,21.43
2018-04-27T16:54:34.093Z,21.14
2018-04-27T16:57:01.658Z,20.94
2018-04-27T16:59:29.393Z,20.84
2018-04-27T17:01:56.985Z,20.65
2018-04-27T17:04:24.581Z,20.63
2018-04-27T17:06:52.320Z,20.51
2018-04-27T17:09:19.913Z,20.46
2018-04-27T17:11:47.547Z,20.76
2018-04-27T17:14:15.152Z,21.13
2018-04-27T17:16:42.779Z,20.96
2018-04-27T17:19:10.418Z,20.64
2018-04-27T17:21:38.093Z,20.58
2018-04-27T17:24:05.758Z,20.42
2018-04-27T17:26:33.451Z,20.56
2018-04-27T17:29:01.005Z,20.70
2018-04-27T17:31:28.727Z,20.76
2018-04-27T17:33:56.389Z,20.87
2018-04-27T17:36:24.139Z,20.72
2018-04-27T17:38:51.779Z,20.75
2018-04-27T17:41:19.401Z,20.58
2018-04-27T17:43:47.025Z,20.51
2018-04-27T17:46:14.774Z,20.51
2018-04-27T17:48:42.565Z,20.62
2018-04-27T17:51:10.109Z,20.35
2018-04-27T17:53:37.888Z,20.29
2018-04-27T17:56:05.517Z,20.25
2018-04-27T17:58:33.185Z,20.16
2018-04-27T18:01:00.925Z,20.07
2018-04-27T18:03:28.586Z,20.08
2018-04-27T18:05:56.255Z,20.18
2018-04-27T18:08:23.924Z,20.09
2018-04-27T18:10:51.650Z,20.07
2018-04-27T18:13:19.476Z,19.94
2018-04-27T18:15:47.242Z,19.78
2018-04-27T18:18:15.155Z,19.79
2018-04-27T18:20:42.847Z,19.74
2018-04-27T18:23:10.494Z,19.77
2018-04-27T18:25:38.329Z,19.71
2018-04-27T18:28:06.030Z,19.70
2018-04-27T18:30:33.948Z,19.56
2018-04-27T18:33:01.572Z,19.49
2018-04-27T18:35:29.761Z,19.47
2018-04-27T18:37:57.348Z,19.48
2018-04-27T18:40:27.295Z,19.33
2018-04-27T18:42:54.908Z,19.29
2018-04-27T18:45:22.701Z,19.19
2018-04-27T18:47:50.666Z,19.10
2018-04-27T18:50:18.509Z,18.96
2018-04-27T18:52:46.259Z,18.90
2018-04-27T18:55:14.099Z,18.82
2018-04-27T18:57:42.058Z,18.82
2018-04-27T19:00:09.857Z,18.86
2018-04-27T19:02:37.763Z,18.73
2018-04-27T19:05:05.730Z,18.72
2018-04-27T19:07:33.587Z,18.70
2018-04-27T19:10:01.446Z,18.67
2018-04-27T19:12:29.628Z,18.74
2018-04-27T19:14:57.849Z,18.67
2018-04-27T19:17:25.970Z,18.65
2018-04-27T19:19:53.724Z,18.55
2018-04-27T19:22:37.881Z,18.52
2018-04-27T19:25:05.715Z,18.42
2018-04-27T19:27:33.580Z,18.32
2018-04-27T19:30:01.491Z,18.39
2018-04-27T19:32:29.740Z,18.48
2018-04-27T19:34:57.621Z,18.49
2018-04-27T19:37:26.072Z,18.42
2018-04-27T19:39:54.873Z,18.35
2018-04-27T19:42:22.753Z,18.30
2018-04-27T19:44:50.623Z,18.28
2018-04-27T19:47:18.662Z,18.21
2018-04-27T19:49:46.571Z,18.27
2018-04-27T19:52:14.745Z,18.33
2018-04-27T19:54:42.560Z,18.31
2018-04-27T19:57:11.193Z,18.26
2018-04-27T19:59:40.238Z,18.22
2018-04-27T20:02:07.926Z,18.27
2018-04-27T20:04:35.788Z,18.34
2018-04-27T20:07:03.599Z,18.39
2018-04-27T20:09:31.330Z,18.40
2018-04-27T20:11:59.226Z,18.42
2018-04-27T20:14:43.746Z,18.34
2018-04-27T20:17:11.487Z,18.32
2018-04-27T20:19:41.847Z,18.26
2018-04-27T20:22:22.724Z,18.23
2018-04-27T20:24:50.463Z,18.16
2018-04-27T20:27:20.852Z,18.06
2018-04-27T20:29:48.791Z,18.11
2018-04-27T20:32:17.365Z,18.17
2018-04-27T20:34:45.918Z,18.25
2018-04-27T20:37:13.773Z,18.28
2018-04-27T20:39:41.883Z,18.26
2018-04-27T20:42:09.936Z,18.24
2018-04-27T20:44:37.714Z,18.31
2018-04-27T20:47:05.344Z,18.32
2018-04-27T20:49:33.620Z,18.31
2018-04-27T20:52:01.372Z,18.22
2018-04-27T20:54:29.065Z,18.13
2018-04-27T20:56:56.870Z,18.13
2018-04-27T20:59:24.547Z,17.99
2018-04-27T21:01:52.378Z,17.90
2018-04-27T21:04:20.041Z,17.82
2018-04-27T21:06:47.983Z,17.74
2018-04-27T21:09:15.942Z,17.76
2018-04-27T21:11:46.015Z,17.69
2018-04-27T21:14:13.794Z,17.73
2018-04-27T21:16:41.552Z,17.68
2018-04-27T21:19:09.311Z,17.62
2018-04-27T21:21:37.257Z,17.63
2018-04-27T21:24:04.914Z,17.60
2018-04-27T21:26:34.145Z,17.58
2018-04-27T21:29:01.845Z,17.58
2018-04-27T21:31:29.559Z,17.57
2018-04-27T21:33:58.020Z,17.58
2018-04-27T21:36:28.634Z,17.62
2018-04-27T21:39:08.492Z,17.71
2018-04-27T21:44:31.653Z,17.66
2018-04-27T21:47:05.561Z,17.67
2018-04-27T21:49:33.149Z,17.65
2018-04-27T21:52:01.412Z,17.58
2018-04-27T21:54:31.031Z,17.57
2018-04-27T21:57:17.423Z,17.54
2018-04-27T21:59:45.023Z,17.51
2018-04-27T22:05:41.843Z,17.41
2018-04-27T22:08:25.795Z,17.23
2018-04-27T22:10:54.271Z,17.20
2018-04-27T22:13:24.656Z,17.13
2018-04-27T22:15:52.201Z,17.22
2018-04-27T22:18:19.813Z,17.22
2018-04-27T22:20:47.602Z,17.25
2018-04-27T22:23:18.414Z,17.13
2018-04-27T22:25:46.749Z,17.13
2018-04-27T22:31:23.127Z,17.00
2018-04-27T22:33:54.392Z,16.96
2018-04-27T22:36:37.701Z,16.89
2018-04-27T22:42:08.280Z,16.93
2018-04-27T22:44:39.441Z,16.88
2018-04-27T22:47:07.057Z,16.91
2018-04-27T22:49:34.725Z,16.85
2018-04-27T22:52:02.605Z,16.80
2018-04-27T22:54:32.088Z,16.75
2018-04-27T22:57:01.419Z,16.61
2018-04-27T22:59:30.037Z,16.56
2018-04-27T23:02:00.720Z,16.55
2018-04-27T23:04:28.432Z,16.50
2018-04-27T23:06:56.467Z,16.47
2018-04-27T23:09:24.419Z,16.34
2018-04-27T23:11:52.081Z,16.36
2018-04-27T23:14:23.531Z,16.35
2018-04-27T23:16:52.918Z,16.41
2018-04-27T23:19:20.590Z,16.38
2018-04-27T23:22:01.920Z,16.28
2018-04-27T23:24:29.634Z,16.18
2018-04-27T23:26:57.982Z,16.10
2018-04-27T23:29:25.594Z,16.07
2018-04-27T23:31:53.327Z,16.03
2018-04-27T23:34:23.739Z,15.96
2018-04-27T23:36:55.349Z,15.96
2018-04-27T23:39:22.939Z,15.89
2018-04-27T23:41:50.690Z,15.87
2018-04-27T23:44:18.457Z,15.97
2018-04-27T23:46:46.085Z,16.04
2018-04-27T23:49:13.856Z,16.02
2018-04-27T23:51:41.492Z,15.93
2018-04-27T23:54:09.977Z,15.89
2018-04-27T23:56:39.052Z,15.90
2018-04-27T23:59:06.715Z,15.92
